sensor_id;sensor_type;location;lat;lon;timestamp;P1;durP1;ratioP1;P2;durP2;ratioP2
4323;SDS011;2175;51.018;6.994;2024-01-30T00:01:43;23.43;;;10.50;;
4323;SDS011;2175;51.018;6.994;2024-01-30T00:04:10;15.40;;;10.23;;
4323;SDS011;2175;51.018;6.994;2024-01-30T00:06:35;16.83;;;10.93;;
4323;SDS011;2175;51.018;6.994;2024-01-30T00:09:01;14.20;;;10.07;;
4323;SDS011;2175;51.018;6.994;2024-01-30T00:11:28;17.77;;;11.00;;
4323;SDS011;2175;51.018;6.994;2024-01-30T00:13:54;20.43;;;11.50;;
4323;SDS011;2175;51.018;6.994;2024-01-30T00:16:24;18.30;;;10.97;;
4323;SDS011;2175;51.018;6.994;2024-01-30T00:18:51;16.00;;;10.73;;
4323;SDS011;2175;51.018;6.994;2024-01-30T00:21:17;18.23;;;11.80;;
4323;SDS011;2175;51.018;6.994;2024-01-30T00:23:43;17.43;;;10.97;;
4323;SDS011;2175;51.018;6.994;2024-01-30T00:26:09;15.40;;;11.60;;
4323;SDS011;2175;51.018;6.994;2024-01-30T00:28:36;16.83;;;11.77;;
4323;SDS011;2175;51.018;6.994;2024-01-30T00:31:02;16.70;;;11.40;;
4323;SDS011;2175;51.018;6.994;2024-01-30T00:33:28;21.17;;;11.73;;
4323;SDS011;2175;51.018;6.994;2024-01-30T00:35:54;17.17;;;11.73;;
4323;SDS011;2175;51.018;6.994;2024-01-30T00:38:20;18.03;;;12.63;;
4323;SDS011;2175;51.018;6.994;2024-01-30T00:40:46;18.17;;;11.83;;
4323;SDS011;2175;51.018;6.994;2024-01-30T00:43:12;19.27;;;11.80;;
4323;SDS011;2175;51.018;6.994;2024-01-30T00:45:38;18.33;;;12.53;;
4323;SDS011;2175;51.018;6.994;2024-01-30T00:48:04;20.10;;;12.00;;
4323;SDS011;2175;51.018;6.994;2024-01-30T00:50:30;17.00;;;12.10;;
4323;SDS011;2175;51.018;6.994;2024-01-30T00:52:56;18.83;;;12.00;;
4323;SDS011;2175;51.018;6.994;2024-01-30T00:55:22;19.23;;;12.27;;
4323;SDS011;2175;51.018;6.994;2024-01-30T00:57:48;19.77;;;12.40;;
4323;SDS011;2175;51.018;6.994;2024-01-30T01:00:14;17.60;;;12.03;;
4323;SDS011;2175;51.018;6.994;2024-01-30T01:02:44;17.37;;;11.83;;
4323;SDS011;2175;51.018;6.994;2024-01-30T01:05:10;18.50;;;12.90;;
4323;SDS011;2175;51.018;6.994;2024-01-30T01:07:36;18.23;;;12.07;;
4323;SDS011;2175;51.018;6.994;2024-01-30T01:10:02;17.07;;;12.10;;
4323;SDS011;2175;51.018;6.994;2024-01-30T01:12:28;16.80;;;11.53;;
4323;SDS011;2175;51.018;6.994;2024-01-30T01:14:54;20.30;;;12.63;;
4323;SDS011;2175;51.018;6.994;2024-01-30T01:17:20;17.53;;;11.37;;
4323;SDS011;2175;51.018;6.994;2024-01-30T01:19:46;15.00;;;11.50;;
4323;SDS011;2175;51.018;6.994;2024-01-30T01:22:12;19.23;;;12.23;;
4323;SDS011;2175;51.018;6.994;2024-01-30T01:24:38;20.17;;;12.30;;
4323;SDS011;2175;51.018;6.994;2024-01-30T01:27:04;17.23;;;12.10;;
4323;SDS011;2175;51.018;6.994;2024-01-30T01:29:31;18.77;;;13.93;;
4323;SDS011;2175;51.018;6.994;2024-01-30T01:31:57;16.13;;;11.97;;
4323;SDS011;2175;51.018;6.994;2024-01-30T01:34:23;18.30;;;12.10;;
4323;SDS011;2175;51.018;6.994;2024-01-30T01:36:49;15.50;;;11.40;;
4323;SDS011;2175;51.018;6.994;2024-01-30T01:39:16;17.87;;;11.30;;
4323;SDS011;2175;51.018;6.994;2024-01-30T01:41:42;17.00;;;12.07;;
4323;SDS011;2175;51.018;6.994;2024-01-30T01:44:08;21.93;;;11.97;;
4323;SDS011;2175;51.018;6.994;2024-01-30T01:46:34;15.80;;;11.63;;
4323;SDS011;2175;51.018;6.994;2024-01-30T01:49:01;19.10;;;11.77;;
4323;SDS011;2175;51.018;6.994;2024-01-30T01:51:29;16.00;;;11.40;;
4323;SDS011;2175;51.018;6.994;2024-01-30T01:53:55;20.00;;;11.40;;
4323;SDS011;2175;51.018;6.994;2024-01-30T01:56:21;25.97;;;12.83;;
4323;SDS011;2175;51.018;6.994;2024-01-30T01:58:48;15.57;;;11.10;;
4323;SDS011;2175;51.018;6.994;2024-01-30T02:01:16;20.10;;;12.60;;
4323;SDS011;2175;51.018;6.994;2024-01-30T02:03:45;21.17;;;13.10;;
4323;SDS011;2175;51.018;6.994;2024-01-30T02:06:11;18.20;;;12.27;;
4323;SDS011;2175;51.018;6.994;2024-01-30T02:08:37;16.80;;;11.83;;
4323;SDS011;2175;51.018;6.994;2024-01-30T02:11:03;16.53;;;11.60;;
4323;SDS011;2175;51.018;6.994;2024-01-30T02:13:30;22.53;;;12.40;;
4323;SDS011;2175;51.018;6.994;2024-01-30T02:15:55;17.10;;;11.57;;
4323;SDS011;2175;51.018;6.994;2024-01-30T02:18:22;19.30;;;11.80;;
4323;SDS011;2175;51.018;6.994;2024-01-30T02:20:48;15.10;;;11.53;;
4323;SDS011;2175;51.018;6.994;2024-01-30T02:23:17;18.63;;;11.57;;
4323;SDS011;2175;51.018;6.994;2024-01-30T02:25:45;21.83;;;12.33;;
4323;SDS011;2175;51.018;6.994;2024-01-30T02:28:14;18.03;;;11.93;;
4323;SDS011;2175;51.018;6.994;2024-01-30T02:30:42;16.83;;;11.23;;
4323;SDS011;2175;51.018;6.994;2024-01-30T02:33:08;14.63;;;11.47;;
4323;SDS011;2175;51.018;6.994;2024-01-30T02:35:34;18.63;;;11.77;;
4323;SDS011;2175;51.018;6.994;2024-01-30T02:38:00;17.53;;;11.40;;
4323;SDS011;2175;51.018;6.994;2024-01-30T02:40:27;15.73;;;11.07;;
4323;SDS011;2175;51.018;6.994;2024-01-30T02:42:53;18.00;;;12.03;;
4323;SDS011;2175;51.018;6.994;2024-01-30T02:45:19;19.17;;;11.13;;
4323;SDS011;2175;51.018;6.994;2024-01-30T02:47:45;18.00;;;10.67;;
4323;SDS011;2175;51.018;6.994;2024-01-30T02:50:11;16.17;;;10.30;;
4323;SDS011;2175;51.018;6.994;2024-01-30T02:52:38;19.00;;;11.20;;
4323;SDS011;2175;51.018;6.994;2024-01-30T02:55:04;15.97;;;10.47;;
4323;SDS011;2175;51.018;6.994;2024-01-30T02:57:30;19.90;;;10.83;;
4323;SDS011;2175;51.018;6.994;2024-01-30T02:59:56;15.63;;;10.67;;
4323;SDS011;2175;51.018;6.994;2024-01-30T03:02:22;20.70;;;11.30;;
4323;SDS011;2175;51.018;6.994;2024-01-30T03:04:48;17.57;;;10.97;;
4323;SDS011;2175;51.018;6.994;2024-01-30T03:07:14;16.40;;;11.10;;
4323;SDS011;2175;51.018;6.994;2024-01-30T03:09:41;14.30;;;10.67;;
4323;SDS011;2175;51.018;6.994;2024-01-30T03:12:09;14.20;;;9.90;;
4323;SDS011;2175;51.018;6.994;2024-01-30T03:14:35;17.73;;;11.50;;
4323;SDS011;2175;51.018;6.994;2024-01-30T03:17:01;18.90;;;11.57;;
4323;SDS011;2175;51.018;6.994;2024-01-30T03:19:27;14.17;;;10.73;;
4323;SDS011;2175;51.018;6.994;2024-01-30T03:21:53;17.77;;;11.53;;
4323;SDS011;2175;51.018;6.994;2024-01-30T03:24:19;14.93;;;10.20;;
4323;SDS011;2175;51.018;6.994;2024-01-30T03:26:45;15.33;;;10.87;;
4323;SDS011;2175;51.018;6.994;2024-01-30T03:29:11;17.27;;;10.60;;
4323;SDS011;2175;51.018;6.994;2024-01-30T03:31:38;19.10;;;11.67;;
4323;SDS011;2175;51.018;6.994;2024-01-30T03:34:04;16.00;;;10.07;;
4323;SDS011;2175;51.018;6.994;2024-01-30T03:36:30;16.63;;;10.10;;
4323;SDS011;2175;51.018;6.994;2024-01-30T03:38:58;14.93;;;10.70;;
4323;SDS011;2175;51.018;6.994;2024-01-30T03:41:24;17.70;;;9.53;;
4323;SDS011;2175;51.018;6.994;2024-01-30T03:43:50;18.00;;;10.10;;
4323;SDS011;2175;51.018;6.994;2024-01-30T03:46:17;14.13;;;10.97;;
4323;SDS011;2175;51.018;6.994;2024-01-30T03:48:43;15.57;;;9.83;;
4323;SDS011;2175;51.018;6.994;2024-01-30T03:51:09;16.40;;;10.23;;
4323;SDS011;2175;51.018;6.994;2024-01-30T03:53:39;14.63;;;9.77;;
4323;SDS011;2175;51.018;6.994;2024-01-30T03:56:06;15.80;;;10.10;;
4323;SDS011;2175;51.018;6.994;2024-01-30T03:58:32;14.43;;;10.10;;
4323;SDS011;2175;51.018;6.994;2024-01-30T04:00:58;16.53;;;9.93;;
4323;SDS011;2175;51.018;6.994;2024-01-30T04:03:24;14.77;;;10.63;;
4323;SDS011;2175;51.018;6.994;2024-01-30T04:05:51;12.43;;;9.73;;
4323;SDS011;2175;51.018;6.994;2024-01-30T04:08:17;15.60;;;10.33;;
4323;SDS011;2175;51.018;6.994;2024-01-30T04:10:43;14.53;;;10.30;;
4323;SDS011;2175;51.018;6.994;2024-01-30T04:13:09;16.17;;;10.60;;
4323;SDS011;2175;51.018;6.994;2024-01-30T04:15:35;13.90;;;10.43;;
4323;SDS011;2175;51.018;6.994;2024-01-30T04:18:01;21.57;;;10.97;;
4323;SDS011;2175;51.018;6.994;2024-01-30T04:20:28;18.10;;;10.43;;
4323;SDS011;2175;51.018;6.994;2024-01-30T04:22:54;16.17;;;9.73;;
4323;SDS011;2175;51.018;6.994;2024-01-30T04:25:20;13.70;;;10.40;;
4323;SDS011;2175;51.018;6.994;2024-01-30T04:27:46;16.63;;;10.07;;
4323;SDS011;2175;51.018;6.994;2024-01-30T04:30:12;16.77;;;9.83;;
4323;SDS011;2175;51.018;6.994;2024-01-30T04:32:38;17.20;;;11.00;;
4323;SDS011;2175;51.018;6.994;2024-01-30T04:35:04;15.30;;;10.17;;
4323;SDS011;2175;51.018;6.994;2024-01-30T04:37:31;16.40;;;11.47;;
4323;SDS011;2175;51.018;6.994;2024-01-30T04:39:57;20.33;;;11.83;;
4323;SDS011;2175;51.018;6.994;2024-01-30T04:42:23;16.23;;;10.27;;
4323;SDS011;2175;51.018;6.994;2024-01-30T04:44:49;17.40;;;11.60;;
4323;SDS011;2175;51.018;6.994;2024-01-30T04:47:15;15.87;;;11.30;;
4323;SDS011;2175;51.018;6.994;2024-01-30T04:49:42;24.93;;;12.10;;
4323;SDS011;2175;51.018;6.994;2024-01-30T04:52:08;14.73;;;10.80;;
4323;SDS011;2175;51.018;6.994;2024-01-30T04:54:34;17.03;;;11.37;;
4323;SDS011;2175;51.018;6.994;2024-01-30T04:57:01;16.37;;;10.77;;
4323;SDS011;2175;51.018;6.994;2024-01-30T04:59:27;15.80;;;11.80;;
4323;SDS011;2175;51.018;6.994;2024-01-30T05:01:53;16.77;;;11.83;;
4323;SDS011;2175;51.018;6.994;2024-01-30T05:04:19;19.57;;;12.13;;
4323;SDS011;2175;51.018;6.994;2024-01-30T05:06:45;23.03;;;11.87;;
4323;SDS011;2175;51.018;6.994;2024-01-30T05:09:12;14.87;;;11.00;;
4323;SDS011;2175;51.018;6.994;2024-01-30T05:11:38;17.77;;;11.60;;
4323;SDS011;2175;51.018;6.994;2024-01-30T05:14:04;16.77;;;11.77;;
4323;SDS011;2175;51.018;6.994;2024-01-30T05:16:30;19.73;;;11.70;;
4323;SDS011;2175;51.018;6.994;2024-01-30T05:18:57;25.27;;;11.93;;
4323;SDS011;2175;51.018;6.994;2024-01-30T05:21:23;14.83;;;11.10;;
4323;SDS011;2175;51.018;6.994;2024-01-30T05:23:49;24.77;;;12.10;;
4323;SDS011;2175;51.018;6.994;2024-01-30T05:26:15;18.03;;;11.13;;
4323;SDS011;2175;51.018;6.994;2024-01-30T05:28:41;14.27;;;10.73;;
4323;SDS011;2175;51.018;6.994;2024-01-30T05:31:09;19.03;;;10.70;;
4323;SDS011;2175;51.018;6.994;2024-01-30T05:33:35;16.87;;;11.03;;
4323;SDS011;2175;51.018;6.994;2024-01-30T05:36:02;16.63;;;10.10;;
4323;SDS011;2175;51.018;6.994;2024-01-30T05:38:28;20.13;;;11.83;;
4323;SDS011;2175;51.018;6.994;2024-01-30T05:40:54;15.00;;;10.20;;
4323;SDS011;2175;51.018;6.994;2024-01-30T05:43:20;23.47;;;11.43;;
4323;SDS011;2175;51.018;6.994;2024-01-30T05:45:46;21.63;;;11.73;;
4323;SDS011;2175;51.018;6.994;2024-01-30T05:48:12;16.10;;;11.30;;
4323;SDS011;2175;51.018;6.994;2024-01-30T05:50:38;15.17;;;11.10;;
4323;SDS011;2175;51.018;6.994;2024-01-30T05:53:04;17.93;;;11.20;;
4323;SDS011;2175;51.018;6.994;2024-01-30T05:55:30;17.27;;;10.80;;
4323;SDS011;2175;51.018;6.994;2024-01-30T05:57:56;16.87;;;11.73;;
4323;SDS011;2175;51.018;6.994;2024-01-30T06:00:22;19.40;;;11.60;;
4323;SDS011;2175;51.018;6.994;2024-01-30T06:02:48;16.27;;;10.67;;
4323;SDS011;2175;51.018;6.994;2024-01-30T06:05:14;15.83;;;10.63;;
4323;SDS011;2175;51.018;6.994;2024-01-30T06:07:40;14.53;;;11.20;;
4323;SDS011;2175;51.018;6.994;2024-01-30T06:10:06;15.50;;;11.20;;
4323;SDS011;2175;51.018;6.994;2024-01-30T06:12:33;16.27;;;11.20;;
4323;SDS011;2175;51.018;6.994;2024-01-30T06:14:59;20.70;;;11.10;;
4323;SDS011;2175;51.018;6.994;2024-01-30T06:17:25;16.07;;;11.00;;
4323;SDS011;2175;51.018;6.994;2024-01-30T06:19:51;18.03;;;10.63;;
4323;SDS011;2175;51.018;6.994;2024-01-30T06:22:17;17.73;;;10.77;;
4323;SDS011;2175;51.018;6.994;2024-01-30T06:24:43;18.80;;;10.97;;
4323;SDS011;2175;51.018;6.994;2024-01-30T06:27:15;17.37;;;10.67;;
4323;SDS011;2175;51.018;6.994;2024-01-30T06:29:42;18.17;;;11.40;;
4323;SDS011;2175;51.018;6.994;2024-01-30T06:32:08;16.63;;;10.30;;
4323;SDS011;2175;51.018;6.994;2024-01-30T06:34:34;16.50;;;10.77;;
4323;SDS011;2175;51.018;6.994;2024-01-30T06:37:01;15.00;;;10.43;;
4323;SDS011;2175;51.018;6.994;2024-01-30T06:39:27;18.40;;;10.87;;
4323;SDS011;2175;51.018;6.994;2024-01-30T06:41:53;15.30;;;10.57;;
4323;SDS011;2175;51.018;6.994;2024-01-30T06:44:19;16.40;;;10.20;;
4323;SDS011;2175;51.018;6.994;2024-01-30T06:46:45;12.60;;;9.73;;
4323;SDS011;2175;51.018;6.994;2024-01-30T06:49:11;17.50;;;10.53;;
4323;SDS011;2175;51.018;6.994;2024-01-30T06:51:37;19.77;;;10.00;;
4323;SDS011;2175;51.018;6.994;2024-01-30T06:54:03;14.77;;;10.70;;
4323;SDS011;2175;51.018;6.994;2024-01-30T06:56:29;15.90;;;11.13;;
4323;SDS011;2175;51.018;6.994;2024-01-30T06:58:55;17.07;;;11.23;;
4323;SDS011;2175;51.018;6.994;2024-01-30T07:01:27;17.40;;;11.53;;
4323;SDS011;2175;51.018;6.994;2024-01-30T07:03:54;14.93;;;10.33;;
4323;SDS011;2175;51.018;6.994;2024-01-30T07:06:20;16.80;;;10.87;;
4323;SDS011;2175;51.018;6.994;2024-01-30T07:08:51;14.43;;;10.17;;
4323;SDS011;2175;51.018;6.994;2024-01-30T07:11:20;18.00;;;10.60;;
4323;SDS011;2175;51.018;6.994;2024-01-30T07:13:54;13.30;;;10.00;;
4323;SDS011;2175;51.018;6.994;2024-01-30T07:16:20;15.40;;;11.07;;
4323;SDS011;2175;51.018;6.994;2024-01-30T07:18:47;17.63;;;10.60;;
4323;SDS011;2175;51.018;6.994;2024-01-30T07:21:14;14.00;;;9.50;;
4323;SDS011;2175;51.018;6.994;2024-01-30T07:23:40;15.43;;;9.90;;
4323;SDS011;2175;51.018;6.994;2024-01-30T07:26:07;14.93;;;10.50;;
4323;SDS011;2175;51.018;6.994;2024-01-30T07:28:33;15.60;;;10.50;;
4323;SDS011;2175;51.018;6.994;2024-01-30T07:30:59;19.27;;;10.73;;
4323;SDS011;2175;51.018;6.994;2024-01-30T07:33:25;17.17;;;10.53;;
4323;SDS011;2175;51.018;6.994;2024-01-30T07:35:52;12.00;;;9.27;;
4323;SDS011;2175;51.018;6.994;2024-01-30T07:38:18;14.57;;;9.70;;
4323;SDS011;2175;51.018;6.994;2024-01-30T07:40:44;17.83;;;9.73;;
4323;SDS011;2175;51.018;6.994;2024-01-30T07:43:10;14.47;;;9.70;;
4323;SDS011;2175;51.018;6.994;2024-01-30T07:45:36;16.30;;;10.70;;
4323;SDS011;2175;51.018;6.994;2024-01-30T07:48:03;14.00;;;10.50;;
4323;SDS011;2175;51.018;6.994;2024-01-30T07:50:29;18.43;;;10.43;;
4323;SDS011;2175;51.018;6.994;2024-01-30T07:52:56;17.83;;;10.03;;
4323;SDS011;2175;51.018;6.994;2024-01-30T07:55:22;15.47;;;9.77;;
4323;SDS011;2175;51.018;6.994;2024-01-30T07:57:51;15.10;;;10.00;;
4323;SDS011;2175;51.018;6.994;2024-01-30T08:00:17;17.80;;;9.97;;
4323;SDS011;2175;51.018;6.994;2024-01-30T08:02:44;13.30;;;9.13;;
4323;SDS011;2175;51.018;6.994;2024-01-30T08:05:10;15.47;;;10.83;;
4323;SDS011;2175;51.018;6.994;2024-01-30T08:07:37;20.00;;;10.20;;
4323;SDS011;2175;51.018;6.994;2024-01-30T08:10:03;20.20;;;10.30;;
4323;SDS011;2175;51.018;6.994;2024-01-30T08:12:29;13.00;;;9.30;;
4323;SDS011;2175;51.018;6.994;2024-01-30T08:14:55;17.23;;;9.03;;
4323;SDS011;2175;51.018;6.994;2024-01-30T08:17:21;15.70;;;9.67;;
4323;SDS011;2175;51.018;6.994;2024-01-30T08:19:46;18.53;;;10.30;;
4323;SDS011;2175;51.018;6.994;2024-01-30T08:22:12;17.30;;;9.90;;
4323;SDS011;2175;51.018;6.994;2024-01-30T08:24:39;13.27;;;9.20;;
4323;SDS011;2175;51.018;6.994;2024-01-30T08:27:06;16.43;;;9.57;;
4323;SDS011;2175;51.018;6.994;2024-01-30T08:29:34;13.60;;;9.53;;
4323;SDS011;2175;51.018;6.994;2024-01-30T08:32:00;14.20;;;9.90;;
4323;SDS011;2175;51.018;6.994;2024-01-30T08:34:26;15.50;;;10.33;;
4323;SDS011;2175;51.018;6.994;2024-01-30T08:36:52;14.30;;;9.20;;
4323;SDS011;2175;51.018;6.994;2024-01-30T08:39:18;12.87;;;8.93;;
4323;SDS011;2175;51.018;6.994;2024-01-30T08:41:45;13.50;;;9.33;;
4323;SDS011;2175;51.018;6.994;2024-01-30T08:44:10;14.20;;;9.33;;
4323;SDS011;2175;51.018;6.994;2024-01-30T08:46:37;14.63;;;9.53;;
4323;SDS011;2175;51.018;6.994;2024-01-30T08:49:03;14.60;;;9.73;;
4323;SDS011;2175;51.018;6.994;2024-01-30T08:51:31;16.40;;;9.33;;
4323;SDS011;2175;51.018;6.994;2024-01-30T08:53:58;13.57;;;9.40;;
4323;SDS011;2175;51.018;6.994;2024-01-30T08:56:24;13.70;;;9.13;;
4323;SDS011;2175;51.018;6.994;2024-01-30T08:58:50;16.00;;;9.53;;
4323;SDS011;2175;51.018;6.994;2024-01-30T09:01:16;16.20;;;9.57;;
4323;SDS011;2175;51.018;6.994;2024-01-30T09:03:42;15.90;;;9.90;;
4323;SDS011;2175;51.018;6.994;2024-01-30T09:06:10;17.33;;;9.37;;
4323;SDS011;2175;51.018;6.994;2024-01-30T09:08:37;11.77;;;9.20;;
4323;SDS011;2175;51.018;6.994;2024-01-30T09:11:13;16.20;;;9.80;;
4323;SDS011;2175;51.018;6.994;2024-01-30T09:13:39;16.93;;;9.40;;
4323;SDS011;2175;51.018;6.994;2024-01-30T09:16:05;14.10;;;9.20;;
4323;SDS011;2175;51.018;6.994;2024-01-30T09:18:32;11.87;;;8.83;;
4323;SDS011;2175;51.018;6.994;2024-01-30T09:20:58;14.60;;;9.40;;
4323;SDS011;2175;51.018;6.994;2024-01-30T09:23:24;12.53;;;9.47;;
4323;SDS011;2175;51.018;6.994;2024-01-30T09:25:50;15.03;;;9.67;;
4323;SDS011;2175;51.018;6.994;2024-01-30T09:28:17;17.13;;;9.20;;
4323;SDS011;2175;51.018;6.994;2024-01-30T09:30:43;13.00;;;8.50;;
4323;SDS011;2175;51.018;6.994;2024-01-30T09:33:09;12.57;;;8.73;;
4323;SDS011;2175;51.018;6.994;2024-01-30T09:35:35;17.20;;;9.83;;
4323;SDS011;2175;51.018;6.994;2024-01-30T09:38:02;12.90;;;8.47;;
4323;SDS011;2175;51.018;6.994;2024-01-30T09:40:28;15.90;;;9.20;;
4323;SDS011;2175;51.018;6.994;2024-01-30T09:42:54;12.70;;;8.37;;
4323;SDS011;2175;51.018;6.994;2024-01-30T09:45:24;15.93;;;8.57;;
4323;SDS011;2175;51.018;6.994;2024-01-30T09:47:50;14.87;;;9.30;;
4323;SDS011;2175;51.018;6.994;2024-01-30T09:50:16;12.17;;;8.93;;
4323;SDS011;2175;51.018;6.994;2024-01-30T09:52:43;14.83;;;9.10;;
4323;SDS011;2175;51.018;6.994;2024-01-30T09:55:09;20.53;;;10.10;;
4323;SDS011;2175;51.018;6.994;2024-01-30T09:57:35;16.77;;;9.87;;
4323;SDS011;2175;51.018;6.994;2024-01-30T10:00:02;20.80;;;9.90;;
4323;SDS011;2175;51.018;6.994;2024-01-30T10:02:29;11.40;;;8.17;;
4323;SDS011;2175;51.018;6.994;2024-01-30T10:04:55;13.63;;;8.20;;
4323;SDS011;2175;51.018;6.994;2024-01-30T10:07:21;14.20;;;9.80;;
4323;SDS011;2175;51.018;6.994;2024-01-30T10:09:48;17.50;;;9.20;;
4323;SDS011;2175;51.018;6.994;2024-01-30T10:12:14;13.60;;;9.00;;
4323;SDS011;2175;51.018;6.994;2024-01-30T10:14:41;15.00;;;8.63;;
4323;SDS011;2175;51.018;6.994;2024-01-30T10:17:08;14.77;;;9.00;;
4323;SDS011;2175;51.018;6.994;2024-01-30T10:19:35;19.33;;;9.57;;
4323;SDS011;2175;51.018;6.994;2024-01-30T10:22:01;15.87;;;9.30;;
4323;SDS011;2175;51.018;6.994;2024-01-30T10:24:27;12.90;;;8.90;;
4323;SDS011;2175;51.018;6.994;2024-01-30T10:26:54;16.73;;;9.00;;
4323;SDS011;2175;51.018;6.994;2024-01-30T10:29:20;18.57;;;10.23;;
4323;SDS011;2175;51.018;6.994;2024-01-30T10:31:56;15.53;;;9.97;;
4323;SDS011;2175;51.018;6.994;2024-01-30T10:34:22;14.43;;;8.30;;
4323;SDS011;2175;51.018;6.994;2024-01-30T10:36:49;13.93;;;10.00;;
4323;SDS011;2175;51.018;6.994;2024-01-30T10:39:16;11.90;;;8.27;;
4323;SDS011;2175;51.018;6.994;2024-01-30T10:41:43;15.40;;;8.70;;
4323;SDS011;2175;51.018;6.994;2024-01-30T10:44:10;15.70;;;9.03;;
4323;SDS011;2175;51.018;6.994;2024-01-30T10:46:39;14.93;;;9.00;;
4323;SDS011;2175;51.018;6.994;2024-01-30T10:49:08;15.20;;;8.80;;
4323;SDS011;2175;51.018;6.994;2024-01-30T10:51:34;16.10;;;9.30;;
4323;SDS011;2175;51.018;6.994;2024-01-30T10:54:02;18.60;;;9.30;;
4323;SDS011;2175;51.018;6.994;2024-01-30T10:56:29;15.13;;;9.00;;
4323;SDS011;2175;51.018;6.994;2024-01-30T10:58:55;13.93;;;9.00;;
4323;SDS011;2175;51.018;6.994;2024-01-30T11:01:21;12.73;;;9.13;;
4323;SDS011;2175;51.018;6.994;2024-01-30T11:03:54;13.73;;;8.60;;
4323;SDS011;2175;51.018;6.994;2024-01-30T11:06:24;13.90;;;8.50;;
4323;SDS011;2175;51.018;6.994;2024-01-30T11:09:04;17.70;;;8.50;;
4323;SDS011;2175;51.018;6.994;2024-01-30T11:14:23;16.10;;;8.37;;
4323;SDS011;2175;51.018;6.994;2024-01-30T11:16:50;16.23;;;8.60;;
4323;SDS011;2175;51.018;6.994;2024-01-30T11:19:22;11.53;;;7.93;;
4323;SDS011;2175;51.018;6.994;2024-01-30T11:21:50;14.63;;;8.47;;
4323;SDS011;2175;51.018;6.994;2024-01-30T11:24:19;15.60;;;8.67;;
4323;SDS011;2175;51.018;6.994;2024-01-30T11:26:46;18.07;;;9.00;;
4323;SDS011;2175;51.018;6.994;2024-01-30T11:29:13;17.83;;;8.47;;
4323;SDS011;2175;51.018;6.994;2024-01-30T11:31:40;17.93;;;8.40;;
4323;SDS011;2175;51.018;6.994;2024-01-30T11:34:06;12.37;;;8.30;;
4323;SDS011;2175;51.018;6.994;2024-01-30T11:36:33;12.70;;;9.00;;
4323;SDS011;2175;51.018;6.994;2024-01-30T11:39:02;13.33;;;8.30;;
4323;SDS011;2175;51.018;6.994;2024-01-30T11:41:28;13.33;;;9.17;;
4323;SDS011;2175;51.018;6.994;2024-01-30T11:43:55;10.60;;;7.93;;
4323;SDS011;2175;51.018;6.994;2024-01-30T11:46:20;13.83;;;7.93;;
4323;SDS011;2175;51.018;6.994;2024-01-30T11:48:46;12.63;;;7.70;;
4323;SDS011;2175;51.018;6.994;2024-01-30T11:51:13;11.90;;;8.40;;
4323;SDS011;2175;51.018;6.994;2024-01-30T11:53:39;15.23;;;8.97;;
4323;SDS011;2175;51.018;6.994;2024-01-30T11:56:06;10.73;;;7.43;;
4323;SDS011;2175;51.018;6.994;2024-01-30T11:58:33;15.63;;;8.70;;
4323;SDS011;2175;51.018;6.994;2024-01-30T12:00:59;13.00;;;8.60;;
4323;SDS011;2175;51.018;6.994;2024-01-30T12:03:25;13.43;;;8.13;;
4323;SDS011;2175;51.018;6.994;2024-01-30T12:05:58;18.17;;;8.17;;
4323;SDS011;2175;51.018;6.994;2024-01-30T12:08:24;14.50;;;9.60;;
4323;SDS011;2175;51.018;6.994;2024-01-30T12:10:59;14.13;;;8.87;;
4323;SDS011;2175;51.018;6.994;2024-01-30T12:13:30;13.03;;;8.40;;
4323;SDS011;2175;51.018;6.994;2024-01-30T12:15:56;16.90;;;8.87;;
4323;SDS011;2175;51.018;6.994;2024-01-30T12:18:22;14.20;;;8.57;;
4323;SDS011;2175;51.018;6.994;2024-01-30T12:21:00;13.03;;;8.23;;
4323;SDS011;2175;51.018;6.994;2024-01-30T12:23:27;12.97;;;8.50;;
4323;SDS011;2175;51.018;6.994;2024-01-30T12:25:53;16.33;;;9.00;;
4323;SDS011;2175;51.018;6.994;2024-01-30T12:28:20;13.87;;;8.77;;
4323;SDS011;2175;51.018;6.994;2024-01-30T12:30:46;11.23;;;8.20;;
4323;SDS011;2175;51.018;6.994;2024-01-30T12:33:18;14.70;;;8.27;;
4323;SDS011;2175;51.018;6.994;2024-01-30T12:35:45;12.93;;;8.90;;
4323;SDS011;2175;51.018;6.994;2024-01-30T12:38:12;16.63;;;9.13;;
4323;SDS011;2175;51.018;6.994;2024-01-30T12:40:39;17.87;;;9.60;;
4323;SDS011;2175;51.018;6.994;2024-01-30T12:43:05;13.33;;;8.63;;
4323;SDS011;2175;51.018;6.994;2024-01-30T12:45:31;13.13;;;8.40;;
4323;SDS011;2175;51.018;6.994;2024-01-30T12:47:57;18.80;;;8.97;;
4323;SDS011;2175;51.018;6.994;2024-01-30T12:50:23;14.30;;;8.30;;
4323;SDS011;2175;51.018;6.994;2024-01-30T12:52:49;14.23;;;9.20;;
4323;SDS011;2175;51.018;6.994;2024-01-30T12:55:15;11.90;;;8.27;;
4323;SDS011;2175;51.018;6.994;2024-01-30T12:57:41;12.43;;;8.33;;
4323;SDS011;2175;51.018;6.994;2024-01-30T13:00:08;12.20;;;8.67;;
4323;SDS011;2175;51.018;6.994;2024-01-30T13:02:36;13.87;;;8.50;;
4323;SDS011;2175;51.018;6.994;2024-01-30T13:05:03;15.73;;;9.10;;
4323;SDS011;2175;51.018;6.994;2024-01-30T13:07:29;17.60;;;8.70;;
4323;SDS011;2175;51.018;6.994;2024-01-30T13:09:56;19.63;;;9.63;;
4323;SDS011;2175;51.018;6.994;2024-01-30T13:12:27;20.03;;;8.57;;
4323;SDS011;2175;51.018;6.994;2024-01-30T13:14:53;14.00;;;8.70;;
4323;SDS011;2175;51.018;6.994;2024-01-30T13:17:20;13.13;;;9.20;;
4323;SDS011;2175;51.018;6.994;2024-01-30T13:19:46;21.00;;;8.83;;
4323;SDS011;2175;51.018;6.994;2024-01-30T13:22:14;13.23;;;9.00;;
4323;SDS011;2175;51.018;6.994;2024-01-30T13:24:40;14.57;;;9.73;;
4323;SDS011;2175;51.018;6.994;2024-01-30T13:27:06;14.60;;;9.20;;
4323;SDS011;2175;51.018;6.994;2024-01-30T13:29:32;20.67;;;9.63;;
4323;SDS011;2175;51.018;6.994;2024-01-30T13:31:58;22.00;;;10.37;;
4323;SDS011;2175;51.018;6.994;2024-01-30T13:34:24;18.00;;;9.33;;
4323;SDS011;2175;51.018;6.994;2024-01-30T13:36:50;17.57;;;8.90;;
4323;SDS011;2175;51.018;6.994;2024-01-30T13:39:17;17.53;;;8.60;;
4323;SDS011;2175;51.018;6.994;2024-01-30T13:41:43;15.00;;;9.03;;
4323;SDS011;2175;51.018;6.994;2024-01-30T13:44:09;18.67;;;9.87;;
4323;SDS011;2175;51.018;6.994;2024-01-30T13:46:35;14.50;;;9.10;;
4323;SDS011;2175;51.018;6.994;2024-01-30T13:49:01;20.93;;;8.77;;
4323;SDS011;2175;51.018;6.994;2024-01-30T13:51:27;14.80;;;7.73;;
4323;SDS011;2175;51.018;6.994;2024-01-30T13:53:53;24.57;;;8.30;;
4323;SDS011;2175;51.018;6.994;2024-01-30T13:56:20;22.17;;;7.57;;
4323;SDS011;2175;51.018;6.994;2024-01-30T13:58:47;15.07;;;7.53;;
4323;SDS011;2175;51.018;6.994;2024-01-30T14:01:14;13.00;;;7.43;;
4323;SDS011;2175;51.018;6.994;2024-01-30T14:03:41;14.93;;;8.30;;
4323;SDS011;2175;51.018;6.994;2024-01-30T14:06:07;15.10;;;7.97;;
4323;SDS011;2175;51.018;6.994;2024-01-30T14:08:33;21.73;;;7.90;;
4323;SDS011;2175;51.018;6.994;2024-01-30T14:10:59;18.20;;;7.63;;
4323;SDS011;2175;51.018;6.994;2024-01-30T14:13:25;13.97;;;8.13;;
4323;SDS011;2175;51.018;6.994;2024-01-30T14:15:51;11.03;;;7.20;;
4323;SDS011;2175;51.018;6.994;2024-01-30T14:18:17;10.50;;;6.80;;
4323;SDS011;2175;51.018;6.994;2024-01-30T14:20:43;14.27;;;8.10;;
4323;SDS011;2175;51.018;6.994;2024-01-30T14:23:09;17.93;;;8.00;;
4323;SDS011;2175;51.018;6.994;2024-01-30T14:25:35;17.30;;;8.23;;
4323;SDS011;2175;51.018;6.994;2024-01-30T14:28:01;13.30;;;7.77;;
4323;SDS011;2175;51.018;6.994;2024-01-30T14:30:27;13.13;;;7.70;;
4323;SDS011;2175;51.018;6.994;2024-01-30T14:32:53;11.80;;;7.23;;
4323;SDS011;2175;51.018;6.994;2024-01-30T14:35:21;22.23;;;7.63;;
4323;SDS011;2175;51.018;6.994;2024-01-30T14:37:47;20.70;;;9.13;;
4323;SDS011;2175;51.018;6.994;2024-01-30T14:40:13;15.43;;;8.60;;
4323;SDS011;2175;51.018;6.994;2024-01-30T14:42:39;16.63;;;8.83;;
4323;SDS011;2175;51.018;6.994;2024-01-30T14:45:05;15.80;;;9.30;;
4323;SDS011;2175;51.018;6.994;2024-01-30T14:47:32;18.60;;;8.10;;
4323;SDS011;2175;51.018;6.994;2024-01-30T14:49:58;16.70;;;8.63;;
4323;SDS011;2175;51.018;6.994;2024-01-30T14:52:24;11.77;;;7.87;;
4323;SDS011;2175;51.018;6.994;2024-01-30T14:54:50;18.00;;;8.40;;